Time;durP1;ratioP1;P1;durP2;ratioP2;P2;SDS_P1;SDS_P2;PMS_P1;PMS_P2;Temp;Humidity;BMP_temperature;BMP_pressure;BME280_temperature;BME280_humidity;BME280_pressure;Samples;Min_cycle;Max_cycle;Signal;HPM_P1;HPM_P2
2023/06/14 00:00:19;;;;;;;1.08;0.47;;;16.60;85.40;;;;;;5012389;28;20196;-72
2023/06/14 00:02:45;;;;;;;0.38;0.17;;;16.50;85.40;;;;;;5014312;28;20037;-72
2023/06/14 00:05:14;;;;;;;0.13;0.00;;;16.50;86.20;;;;;;5013478;28;20053;-72
2023/06/14 00:07:42;;;;;;;0.00;0.00;;;16.40;86.70;;;;;;5025922;28;20727;-72
2023/06/14 00:10:08;;;;;;;0.00;0.00;;;16.40;86.00;;;;;;5025341;28;20176;-72
2023/06/14 00:12:35;;;;;;;0.22;0.10;;;16.40;87.70;;;;;;5013883;28;20116;-72
2023/06/14 00:15:04;;;;;;;0.55;0.10;;;16.30;88.50;;;;;;4996697;28;20029;-72
2023/06/14 00:17:31;;;;;;;0.00;0.00;;;16.30;89.50;;;;;;5010713;28;20043;-71
2023/06/14 00:19:57;;;;;;;0.00;0.00;;;16.20;90.30;;;;;;5010152;28;20077;-72
2023/06/14 00:22:28;;;;;;;2.40;0.70;;;16.20;90.30;;;;;;5009610;28;20133;-72
2023/06/14 00:24:54;;;;;;;0.00;0.00;;;16.20;89.50;;;;;;5014574;28;20056;-72
2023/06/14 00:27:20;;;;;;;0.00;0.00;;;16.10;91.20;;;;;;5012026;28;20056;-71
2023/06/14 00:29:45;;;;;;;0.10;0.10;;;16.10;92.40;;;;;;5028551;28;20559;-72
2023/06/14 00:32:11;;;;;;;0.63;0.20;;;16.10;91.80;;;;;;5013872;28;20274;-72
2023/06/14 00:34:37;;;;;;;0.00;0.00;;;16.00;93.30;;;;;;5011492;28;20045;-71
2023/06/14 00:37:03;;;;;;;0.00;0.00;;;16.00;93.80;;;;;;5010335;28;20044;-71
2023/06/14 00:39:28;;;;;;;0.00;0.00;;;15.90;93.80;;;;;;5026997;28;20038;-72
2023/06/14 00:41:54;;;;;;;0.10;0.00;;;15.90;92.50;;;;;;5010457;28;20398;-72
2023/06/14 00:44:21;;;;;;;0.13;0.10;;;15.80;94.30;;;;;;5012302;28;20045;-72
2023/06/14 00:46:50;;;;;;;0.22;0.08;;;15.80;95.70;;;;;;5012082;28;20163;-71
2023/06/14 00:49:17;;;;;;;0.00;0.00;;;15.80;96.00;;;;;;4994304;28;20073;-72
2023/06/14 00:51:43;;;;;;;0.05;0.00;;;15.70;96.00;;;;;;5011529;28;20038;-72
2023/06/14 00:54:09;;;;;;;0.05;0.05;;;15.70;95.70;;;;;;5013443;28;20136;-72
2023/06/14 00:56:39;;;;;;;0.00;0.00;;;15.70;96.40;;;;;;4996890;28;20049;-72
2023/06/14 00:59:05;;;;;;;1.38;0.15;;;15.70;98.00;;;;;;5012589;28;20103;-72
2023/06/14 01:01:34;;;;;;;0.20;0.20;;;15.60;98.20;;;;;;5025938;28;20041;-71
2023/06/14 01:04:03;;;;;;;0.10;0.10;;;15.60;97.20;;;;;;5008377;28;20045;-71
2023/06/14 01:07:03;;;;;;;0.03;0.03;;;15.50;99.10;;;;;;5006843;28;20079;-72
2023/06/14 01:09:38;;;;;;;0.10;0.10;;;15.50;99.60;;;;;;4978272;28;20056;-72
2023/06/14 01:12:21;;;;;;;0.00;0.00;;;15.50;99.10;;;;;;5011680;28;20111;-71
2023/06/14 01:14:49;;;;;;;0.30;0.20;;;15.50;99.90;;;;;;5008458;28;20042;-71
2023/06/14 01:17:16;;;;;;;0.20;0.10;;;15.50;99.70;;;;;;5010180;28;20053;-71
2023/06/14 01:19:46;;;;;;;0.43;0.10;;;15.40;99.90;;;;;;5011216;28;20370;-71
2023/06/14 01:22:11;;;;;;;0.13;0.13;;;15.30;99.90;;;;;;5011678;28;20042;-71
2023/06/14 01:24:39;;;;;;;0.90;0.43;;;15.30;99.90;;;;;;5010990;28;20519;-70
2023/06/14 01:27:06;;;;;;;0.00;0.00;;;15.30;99.90;;;;;;5009799;28;20103;-71
2023/06/14 01:29:33;;;;;;;2.97;0.30;;;15.30;99.90;;;;;;5010043;28;20045;-71
2023/06/14 01:32:00;;;;;;;0.00;0.00;;;15.20;99.90;;;;;;5009452;28;20382;-71
2023/06/14 01:34:26;;;;;;;0.43;0.30;;;15.20;99.90;;;;;;5011474;28;20048;-71
2023/06/14 01:36:54;;;;;;;0.00;0.00;;;15.20;99.90;;;;;;4996339;28;20171;-71
2023/06/14 01:39:22;;;;;;;0.30;0.20;;;15.20;99.90;;;;;;5010263;28;20041;-71
2023/06/14 01:41:49;;;;;;;0.30;0.22;;;15.10;99.90;;;;;;5010894;28;20052;-71
2023/06/14 01:44:16;;;;;;;0.00;0.00;;;15.10;99.90;;;;;;5012526;28;20103;-71
2023/06/14 01:46:43;;;;;;;0.00;0.00;;;15.10;99.90;;;;;;5012258;28;20041;-71
2023/06/14 01:49:10;;;;;;;0.90;0.30;;;15.00;99.90;;;;;;5005892;28;20046;-70
2023/06/14 01:51:36;;;;;;;0.00;0.00;;;15.00;99.90;;;;;;5008920;28;20545;-71
2023/06/14 01:54:01;;;;;;;0.10;0.10;;;15.00;99.90;;;;;;5012632;28;20128;-71
2023/06/14 01:56:27;;;;;;;3.67;0.47;;;14.90;99.90;;;;;;5011510;28;20523;-71
2023/06/14 01:58:53;;;;;;;0.10;0.10;;;14.90;99.90;;;;;;5000849;28;20468;-72
2023/06/14 02:01:21;;;;;;;0.00;0.00;;;14.90;99.90;;;;;;5007699;28;20154;-71
2023/06/14 02:03:48;;;;;;;0.10;0.00;;;14.80;99.90;;;;;;5009995;28;20038;-71
2023/06/14 02:06:15;;;;;;;0.00;0.00;;;14.80;99.90;;;;;;5010222;28;20133;-72
2023/06/14 02:08:42;;;;;;;0.00;0.00;;;14.80;99.90;;;;;;4993105;28;20073;-72
2023/06/14 02:11:08;;;;;;;0.60;0.40;;;14.70;99.90;;;;;;5009576;28;20048;-71
2023/06/14 02:13:34;;;;;;;1.75;0.60;;;14.70;99.90;;;;;;5012148;28;20342;-71
2023/06/14 02:16:00;;;;;;;0.00;0.00;;;14.70;99.90;;;;;;5007342;28;20036;-71
2023/06/14 02:18:27;;;;;;;0.00;0.00;;;14.60;99.90;;;;;;4994219;28;20452;-71
2023/06/14 02:20:52;;;;;;;0.00;0.00;;;14.60;99.90;;;;;;5007158;28;20041;-71
2023/06/14 02:23:18;;;;;;;0.10;0.10;;;14.60;99.90;;;;;;4991855;28;20144;-72
2023/06/14 02:25:45;;;;;;;0.00;0.00;;;14.60;99.90;;;;;;4994598;28;20049;-72
2023/06/14 02:28:11;;;;;;;0.45;0.45;;;14.60;99.90;;;;;;5010794;28;20047;-71
2023/06/14 02:30:37;;;;;;;0.00;0.00;;;14.50;99.90;;;;;;5008451;28;20063;-71
2023/06/14 02:33:04;;;;;;;0.93;0.22;;;14.50;99.90;;;;;;4992397;28;20077;-71
2023/06/14 02:35:30;;;;;;;0.38;0.10;;;14.40;99.90;;;;;;4995111;28;20518;-72
2023/06/14 02:37:56;;;;;;;0.10;0.10;;;14.40;99.90;;;;;;5010133;28;20399;-71
2023/06/14 02:40:22;;;;;;;0.00;0.00;;;14.40;99.90;;;;;;4995466;28;20048;-71
2023/06/14 02:42:48;;;;;;;0.43;0.08;;;14.30;99.90;;;;;;5026941;28;20049;-70
2023/06/14 02:45:13;;;;;;;0.00;0.00;;;14.30;99.90;;;;;;4994414;28;20107;-71
2023/06/14 02:47:39;;;;;;;0.00;0.00;;;14.30;99.90;;;;;;5010455;28;20106;-71
2023/06/14 02:50:06;;;;;;;0.20;0.10;;;14.30;99.90;;;;;;5008137;28;20053;-71
2023/06/14 02:52:33;;;;;;;0.00;0.00;;;14.20;99.90;;;;;;5010560;28;20168;-71
2023/06/14 02:54:59;;;;;;;0.00;0.00;;;14.20;99.90;;;;;;5010616;28;20160;-71
2023/06/14 02:57:24;;;;;;;0.00;0.00;;;14.20;99.90;;;;;;5006285;28;20207;-72
2023/06/14 02:59:50;;;;;;;0.00;0.00;;;14.20;99.90;;;;;;4992792;28;20462;-72
2023/06/14 03:02:16;;;;;;;0.00;0.00;;;14.10;99.90;;;;;;5008543;28;20041;-71
2023/06/14 03:04:44;;;;;;;0.00;0.00;;;14.10;99.90;;;;;;5008887;28;20548;-71
2023/06/14 03:07:10;;;;;;;0.20;0.20;;;14.10;99.90;;;;;;5007304;28;20064;-70
2023/06/14 03:09:39;;;;;;;0.00;0.00;;;14.00;99.90;;;;;;5004564;28;20075;-71
2023/06/14 03:12:09;;;;;;;0.45;0.17;;;14.00;99.90;;;;;;5006974;28;20034;-71
2023/06/14 03:14:35;;;;;;;0.10;0.10;;;14.00;99.90;;;;;;5006565;28;20048;-70
2023/06/14 03:17:02;;;;;;;0.05;0.05;;;13.90;99.90;;;;;;5002098;28;20033;-71
2023/06/14 03:19:27;;;;;;;0.00;0.00;;;13.90;99.90;;;;;;4988975;28;20667;-71
2023/06/14 03:21:56;;;;;;;0.00;0.00;;;13.90;99.90;;;;;;5008854;28;20145;-70
2023/06/14 03:24:23;;;;;;;0.00;0.00;;;13.90;99.90;;;;;;5009324;28;20041;-70
2023/06/14 03:26:49;;;;;;;0.00;0.00;;;13.90;99.90;;;;;;5022783;28;20049;-70
2023/06/14 03:29:15;;;;;;;0.10;0.03;;;13.80;99.90;;;;;;5009412;28;20033;-69
2023/06/14 03:32:00;;;;;;;0.00;0.00;;;13.80;99.90;;;;;;5005935;28;20135;-71
2023/06/14 03:34:26;;;;;;;1.88;0.20;;;13.80;99.90;;;;;;5010083;28;20044;-70
2023/06/14 03:36:52;;;;;;;0.00;0.00;;;13.80;99.90;;;;;;5013251;28;20053;-69
2023/06/14 03:39:18;;;;;;;0.55;0.47;;;13.80;99.90;;;;;;4996564;28;20064;-71
2023/06/14 03:41:44;;;;;;;0.08;0.08;;;13.80;99.90;;;;;;5011789;28;20545;-70
2023/06/14 03:44:09;;;;;;;0.00;0.00;;;13.70;99.90;;;;;;5014198;28;20056;-70
2023/06/14 03:46:35;;;;;;;0.00;0.00;;;13.70;99.90;;;;;;5012070;28;20064;-70
2023/06/14 03:49:02;;;;;;;0.30;0.17;;;13.70;99.90;;;;;;5012262;28;20124;-71
2023/06/14 03:51:28;;;;;;;0.00;0.00;;;13.70;99.90;;;;;;5014150;28;20476;-71
2023/06/14 03:53:55;;;;;;;0.00;0.00;;;13.80;99.90;;;;;;5011312;28;20389;-70
2023/06/14 03:56:21;;;;;;;0.73;0.38;;;13.80;99.90;;;;;;5011301;28;20053;-72
2023/06/14 03:58:47;;;;;;;0.00;0.00;;;13.80;99.90;;;;;;5006149;28;20046;-72
2023/06/14 04:01:13;;;;;;;0.10;0.10;;;13.80;99.90;;;;;;4994676;28;20425;-70
2023/06/14 04:03:40;;;;;;;0.00;0.00;;;13.80;99.90;;;;;;5008380;28;20035;-71
2023/06/14 04:06:06;;;;;;;0.25;0.10;;;13.90;99.90;;;;;;5010070;28;20056;-71
2023/06/14 04:08:32;;;;;;;0.00;0.00;;;13.80;99.90;;;;;;5010076;28;20065;-72
2023/06/14 04:10:58;;;;;;;0.13;0.13;;;13.90;99.90;;;;;;5011157;28;20073;-71
2023/06/14 04:13:23;;;;;;;0.00;0.00;;;13.80;99.90;;;;;;5010060;28;20049;-72
2023/06/14 04:15:49;;;;;;;0.80;0.32;;;13.90;99.90;;;;;;5010970;28;20042;-71
2023/06/14 04:18:15;;;;;;;0.05;0.05;;;13.90;99.90;;;;;;5008190;28;20033;-71
2023/06/14 04:20:40;;;;;;;0.10;0.10;;;14.00;99.90;;;;;;4993536;28;20038;-71
2023/06/14 04:23:14;;;;;;;0.00;0.00;;;14.00;99.90;;;;;;5006551;28;20041;-71
2023/06/14 04:25:40;;;;;;;0.00;0.00;;;14.20;99.90;;;;;;5006927;28;20424;-72
2023/06/14 04:28:08;;;;;;;0.00;0.00;;;14.30;99.90;;;;;;5007588;28;20041;-71
2023/06/14 04:30:35;;;;;;;0.10;0.10;;;14.40;99.90;;;;;;5005728;28;20104;-70
2023/06/14 04:33:05;;;;;;;0.00;0.00;;;14.40;99.90;;;;;;5009445;28;20046;-69
2023/06/14 04:35:32;;;;;;;0.20;0.10;;;14.50;99.90;;;;;;5010606;28;20906;-71
2023/06/14 04:37:59;;;;;;;1.45;0.60;;;14.60;99.90;;;;;;5008528;28;20235;-71
2023/06/14 04:40:25;;;;;;;0.00;0.00;;;14.60;99.90;;;;;;5007785;28;20173;-72
2023/06/14 04:42:51;;;;;;;0.43;0.13;;;14.70;99.90;;;;;;5007359;28;20534;-72
2023/06/14 04:45:17;;;;;;;0.38;0.38;;;14.80;99.90;;;;;;5024925;28;20478;-71
2023/06/14 04:47:43;;;;;;;0.00;0.00;;;14.90;99.90;;;;;;4993243;28;20049;-72
2023/06/14 04:50:13;;;;;;;0.00;0.00;;;15.00;99.90;;;;;;5006407;28;20116;-72
2023/06/14 04:52:38;;;;;;;0.00;0.00;;;15.00;99.90;;;;;;5008088;28;20038;-73
2023/06/14 04:55:05;;;;;;;0.00;0.00;;;15.20;99.90;;;;;;5010698;28;20104;-73
2023/06/14 04:57:31;;;;;;;0.20;0.10;;;15.30;99.90;;;;;;5008495;28;20096;-71
2023/06/14 04:59:57;;;;;;;0.00;0.00;;;15.50;99.90;;;;;;5009142;28;20129;-72
2023/06/14 05:02:23;;;;;;;0.20;0.10;;;15.90;99.90;;;;;;5008979;28;20117;-73
2023/06/14 05:04:50;;;;;;;0.35;0.15;;;16.30;99.90;;;;;;5007566;28;20085;-73
2023/06/14 05:07:16;;;;;;;0.52;0.10;;;16.60;99.90;;;;;;5009157;28;20069;-73
2023/06/14 05:09:42;;;;;;;0.00;0.00;;;16.70;99.90;;;;;;4990708;28;20073;-73
2023/06/14 05:12:08;;;;;;;0.00;0.00;;;16.70;99.90;;;;;;4994625;28;20034;-74
2023/06/14 05:14:34;;;;;;;0.00;0.00;;;16.60;99.90;;;;;;5004098;28;20038;-74
2023/06/14 05:17:00;;;;;;;0.00;0.00;;;16.80;99.90;;;;;;5008137;28;20045;-73
2023/06/14 05:19:26;;;;;;;0.10;0.10;;;16.70;99.90;;;;;;5008954;28;20508;-74
2023/06/14 05:21:53;;;;;;;0.00;0.00;;;16.60;99.90;;;;;;4990260;28;20121;-74
2023/06/14 05:24:19;;;;;;;0.60;0.30;;;16.50;99.90;;;;;;5010181;28;20402;-74
2023/06/14 05:26:48;;;;;;;0.10;0.10;;;16.50;99.90;;;;;;5006168;28;20054;-75
2023/06/14 05:29:14;;;;;;;0.57;0.28;;;16.40;99.90;;;;;;4995114;28;20042;-75
2023/06/14 05:31:40;;;;;;;0.20;0.17;;;16.50;99.90;;;;;;5008802;28;20054;-75
2023/06/14 05:34:06;;;;;;;0.03;0.03;;;16.50;99.90;;;;;;4992098;28;20037;-74
2023/06/14 05:36:31;;;;;;;4.95;0.25;;;16.50;99.90;;;;;;5006185;28;20041;-74
2023/06/14 05:38:59;;;;;;;1.35;0.52;;;16.60;99.90;;;;;;5005863;28;20046;-74
2023/06/14 05:41:28;;;;;;;0.00;0.00;;;16.60;99.90;;;;;;5007997;28;20081;-74
2023/06/14 05:43:55;;;;;;;2.50;0.82;;;16.70;99.90;;;;;;5007746;28;20042;-74
2023/06/14 05:46:24;;;;;;;0.10;0.10;;;16.80;99.90;;;;;;5006048;28;20077;-75
2023/06/14 05:48:50;;;;;;;0.22;0.15;;;16.80;99.90;;;;;;4989494;28;20136;-74
2023/06/14 05:51:18;;;;;;;0.00;0.00;;;16.90;99.90;;;;;;5008177;28;20355;-76
2023/06/14 05:53:46;;;;;;;0.00;0.00;;;17.10;99.90;;;;;;5007771;28;20042;-76
2023/06/14 05:56:12;;;;;;;0.10;0.10;;;17.20;99.90;;;;;;4986870;28;20046;-75
2023/06/14 05:58:38;;;;;;;0.75;0.17;;;17.30;99.90;;;;;;5004485;28;20046;-75
2023/06/14 06:01:03;;;;;;;0.00;0.00;;;17.40;99.90;;;;;;5005418;28;20038;-75
2023/06/14 06:03:32;;;;;;;0.00;0.00;;;17.50;99.90;;;;;;5006081;28;20460;-75
2023/06/14 06:05:58;;;;;;;0.00;0.00;;;17.60;99.90;;;;;;5006484;28;20048;-75
2023/06/14 06:08:24;;;;;;;0.00;0.00;;;17.70;99.90;;;;;;5001041;28;20104;-76
2023/06/14 06:10:50;;;;;;;0.32;0.22;;;17.80;99.90;;;;;;5008420;28;20041;-76
2023/06/14 06:13:16;;;;;;;0.00;0.00;;;17.90;99.90;;;;;;4991853;28;20034;-74
2023/06/14 06:15:42;;;;;;;0.10;0.00;;;18.00;99.90;;;;;;5006106;28;20053;-73
2023/06/14 06:18:07;;;;;;;0.00;0.00;;;18.10;99.90;;;;;;5023069;28;20083;-76
2023/06/14 06:20:33;;;;;;;0.40;0.40;;;18.10;99.90;;;;;;4991704;28;20041;-75
2023/06/14 06:22:59;;;;;;;0.00;0.00;;;18.20;99.90;;;;;;5009389;28;20053;-76
2023/06/14 06:25:31;;;;;;;0.28;0.25;;;18.30;99.90;;;;;;5007060;28;20501;-75
2023/06/14 06:27:57;;;;;;;0.00;0.00;;;18.40;99.90;;;;;;5007984;28;20045;-76
2023/06/14 06:30:24;;;;;;;0.63;0.17;;;18.50;99.90;;;;;;5006297;28;20041;-76
2023/06/14 06:32:50;;;;;;;0.05;0.00;;;18.70;99.90;;;;;;5008958;28;20050;-76
2023/06/14 06:35:16;;;;;;;0.00;0.00;;;18.80;99.90;;;;;;5006423;28;20041;-76
2023/06/14 06:37:42;;;;;;;0.00;0.00;;;18.90;99.90;;;;;;5008189;28;20046;-77
2023/06/14 06:40:09;;;;;;;0.60;0.30;;;19.00;99.90;;;;;;4990155;28;20386;-76
2023/06/14 06:42:35;;;;;;;0.00;0.00;;;19.20;99.90;;;;;;5006684;28;20042;-76
2023/06/14 06:45:01;;;;;;;0.10;0.10;;;19.30;99.90;;;;;;5004807;28;20080;-76
2023/06/14 06:47:27;;;;;;;0.28;0.13;;;19.40;99.00;;;;;;5008653;28;20120;-76
2023/06/14 06:49:53;;;;;;;0.00;0.00;;;19.50;99.00;;;;;;5004850;28;20153;-76
2023/06/14 06:52:18;;;;;;;0.05;0.05;;;19.60;98.70;;;;;;5004798;28;20072;-77
2023/06/14 06:54:44;;;;;;;1.25;0.32;;;19.70;97.70;;;;;;4991273;28;20034;-78
2023/06/14 06:57:10;;;;;;;0.00;0.00;;;19.70;95.90;;;;;;4994804;28;20120;-72
2023/06/14 06:59:37;;;;;;;0.00;0.00;;;19.70;95.50;;;;;;4991410;28;20045;-75
2023/06/14 07:02:03;;;;;;;0.10;0.10;;;19.80;96.10;;;;;;5011920;28;20051;-74
2023/06/14 07:04:29;;;;;;;0.10;0.05;;;19.80;96.00;;;;;;5010572;28;20052;-74
2023/06/14 07:06:55;;;;;;;0.20;0.20;;;20.00;97.00;;;;;;5010607;28;20041;-76
2023/06/14 07:09:21;;;;;;;0.65;0.20;;;20.10;94.80;;;;;;5007619;28;20045;-74
2023/06/14 07:11:47;;;;;;;0.40;0.30;;;20.20;94.00;;;;;;5010322;28;20481;-76
2023/06/14 07:14:12;;;;;;;0.00;0.00;;;20.30;95.10;;;;;;5008687;28;20406;-74
2023/06/14 07:16:39;;;;;;;0.65;0.40;;;20.40;94.00;;;;;;5010025;28;20040;-75
2023/06/14 07:19:05;;;;;;;0.17;0.08;;;20.50;94.40;;;;;;5008665;28;20049;-76
2023/06/14 07:21:31;;;;;;;1.48;0.25;;;20.60;93.20;;;;;;5009288;28;20039;-75
2023/06/14 07:23:57;;;;;;;0.00;0.00;;;20.60;90.90;;;;;;5014119;28;20132;-75
2023/06/14 07:26:23;;;;;;;0.63;0.30;;;20.70;91.00;;;;;;5009398;28;20076;-74
2023/06/14 07:28:49;;;;;;;0.00;0.00;;;20.80;91.40;;;;;;5011313;28;20470;-74
2023/06/14 07:31:19;;;;;;;0.10;0.10;;;20.80;91.80;;;;;;4995246;28;20481;-75
2023/06/14 07:33:45;;;;;;;0.15;0.08;;;20.90;91.50;;;;;;5009373;28;20050;-75
2023/06/14 07:36:11;;;;;;;7.97;0.38;;;20.90;91.20;;;;;;4993327;28;20041;-72
2023/06/14 07:38:36;;;;;;;0.00;0.00;;;21.00;90.20;;;;;;5010393;28;20383;-73
2023/06/14 07:41:03;;;;;;;0.00;0.00;;;21.10;88.20;;;;;;5010612;28;20081;-74
2023/06/14 07:43:29;;;;;;;0.20;0.10;;;21.10;87.60;;;;;;5010072;28;20041;-76
2023/06/14 07:45:55;;;;;;;0.00;0.00;;;21.10;90.20;;;;;;5006756;28;20045;-74
2023/06/14 07:48:20;;;;;;;0.40;0.08;;;21.30;90.20;;;;;;5007365;28;20406;-74
2023/06/14 07:50:46;;;;;;;0.50;0.30;;;21.50;88.00;;;;;;4988921;28;20117;-73
2023/06/14 07:53:12;;;;;;;0.73;0.30;;;21.50;84.50;;;;;;5009718;28;20103;-73
2023/06/14 07:55:39;;;;;;;0.68;0.05;;;21.50;84.70;;;;;;5010322;28;20387;-75
2023/06/14 07:58:08;;;;;;;0.08;0.08;;;21.50;83.80;;;;;;5011169;28;20478;-73
2023/06/14 08:00:33;;;;;;;0.30;0.17;;;21.60;82.90;;;;;;4993054;28;20033;-72
2023/06/14 08:02:59;;;;;;;0.10;0.10;;;21.50;80.40;;;;;;5011977;28;20041;-73
2023/06/14 08:05:26;;;;;;;0.28;0.10;;;21.70;80.50;;;;;;4991456;28;20085;-75
2023/06/14 08:07:52;;;;;;;0.00;0.00;;;21.70;81.90;;;;;;4995121;28;20108;-72
2023/06/14 08:10:18;;;;;;;0.05;0.05;;;21.80;78.10;;;;;;5010105;28;20124;-75
2023/06/14 08:12:44;;;;;;;0.08;0.00;;;22.00;79.20;;;;;;5011094;28;20457;-75
2023/06/14 08:15:10;;;;;;;0.00;0.00;;;22.10;79.50;;;;;;5007533;28;20042;-76
2023/06/14 08:17:36;;;;;;;0.22;0.20;;;22.20;79.70;;;;;;5008593;28;20088;-74
2023/06/14 08:20:04;;;;;;;0.00;0.00;;;22.50;79.40;;;;;;5008878;28;20077;-74
2023/06/14 08:22:32;;;;;;;0.17;0.10;;;22.50;74.50;;;;;;5015038;28;20100;-73
2023/06/14 08:24:58;;;;;;;0.08;0.03;;;22.50;77.20;;;;;;5012124;28;20045;-77
2023/06/14 08:27:23;;;;;;;0.00;0.00;;;22.50;74.30;;;;;;5014483;28;20056;-77
2023/06/14 08:29:49;;;;;;;0.15;0.03;;;22.60;74.10;;;;;;5010798;28;20045;-77
2023/06/14 08:32:15;;;;;;;0.00;0.00;;;22.60;72.50;;;;;;5012687;28;20042;-78
2023/06/14 08:34:41;;;;;;;0.10;0.10;;;22.70;71.40;;;;;;5009213;28;20037;-75
2023/06/14 08:37:07;;;;;;;0.00;0.00;;;22.80;70.80;;;;;;5010384;28;20076;-75
2023/06/14 08:39:33;;;;;;;0.38;0.20;;;23.00;68.00;;;;;;5012834;28;20069;-75
2023/06/14 08:42:03;;;;;;;2.55;0.57;;;22.90;65.00;;;;;;5013150;28;20049;-74
2023/06/14 08:44:29;;;;;;;0.38;0.25;;;23.00;68.40;;;;;;4996518;28;20041;-74
2023/06/14 08:46:59;;;;;;;0.03;0.03;;;23.00;66.30;;;;;;4997968;28;20053;-75
2023/06/14 08:49:25;;;;;;;0.20;0.10;;;23.00;64.50;;;;;;5008170;28;20525;-73
2023/06/14 08:51:57;;;;;;;0.80;0.10;;;23.00;63.90;;;;;;5012548;28;20049;-74
2023/06/14 08:54:27;;;;;;;0.00;0.00;;;23.10;65.10;;;;;;5010911;28;20066;-74
2023/06/14 08:56:57;;;;;;;1.10;0.28;;;23.30;64.40;;;;;;5012133;28;20076;-76
2023/06/14 08:59:26;;;;;;;1.17;0.40;;;23.50;63.40;;;;;;5011544;28;20049;-77
2023/06/14 09:01:54;;;;;;;0.20;0.13;;;23.60;61.00;;;;;;5012568;28;20122;-76
2023/06/14 09:04:24;;;;;;;0.15;0.10;;;23.40;61.00;;;;;;5010102;28;20042;-73
2023/06/14 09:06:52;;;;;;;0.17;0.10;;;23.40;61.30;;;;;;5012666;28;20409;-74
2023/06/14 09:09:22;;;;;;;0.10;0.00;;;23.40;61.30;;;;;;5010183;28;20049;-72
2023/06/14 09:11:50;;;;;;;0.13;0.13;;;23.40;61.60;;;;;;5009854;28;20037;-72
2023/06/14 09:14:17;;;;;;;0.20;0.10;;;23.50;60.70;;;;;;5012984;28;20485;-72
2023/06/14 09:16:43;;;;;;;0.00;0.00;;;23.70;61.00;;;;;;5012649;28;20127;-72
2023/06/14 09:19:13;;;;;;;0.00;0.00;;;23.80;59.10;;;;;;5012237;28;20041;-73
2023/06/14 09:21:40;;;;;;;0.05;0.00;;;23.90;60.20;;;;;;5009732;28;20077;-74
2023/06/14 09:24:13;;;;;;;0.00;0.00;;;24.10;58.40;;;;;;5013134;28;20045;-75
2023/06/14 09:26:40;;;;;;;0.10;0.10;;;24.10;57.80;;;;;;4981951;28;20073;-75
2023/06/14 09:29:06;;;;;;;0.10;0.03;;;24.00;59.40;;;;;;5012164;28;20401;-76
2023/06/14 09:31:32;;;;;;;4.88;0.75;;;24.00;60.00;;;;;;5006817;28;20046;-76
2023/06/14 09:34:01;;;;;;;0.00;0.00;;;23.90;57.60;;;;;;5013373;28;20045;-75
2023/06/14 09:36:27;;;;;;;0.10;0.05;;;24.00;59.30;;;;;;5008532;28;20091;-75
2023/06/14 09:39:07;;;;;;;0.00;0.00;;;24.20;58.90;;;;;;5013667;28;20541;-76
2023/06/14 09:41:36;;;;;;;0.00;0.00;;;24.30;58.40;;;;;;5010261;28;20041;-74
2023/06/14 09:44:04;;;;;;;0.20;0.08;;;24.50;59.70;;;;;;5012595;28;20048;-77
2023/06/14 09:46:30;;;;;;;0.55;0.30;;;24.80;57.70;;;;;;5012624;28;20489;-74
2023/06/14 09:49:00;;;;;;;0.00;0.00;;;24.70;55.00;;;;;;5012777;28;20133;-75
2023/06/14 09:51:27;;;;;;;3.10;0.32;;;24.70;55.60;;;;;;5010201;28;20045;-79
2023/06/14 09:53:56;;;;;;;0.20;0.10;;;24.80;54.20;;;;;;4996676;28;20190;-76
2023/06/14 09:56:33;;;;;;;0.00;0.00;;;24.80;54.60;;;;;;5011096;28;20107;-80
2023/06/14 09:58:59;;;;;;;0.60;0.08;;;24.90;56.50;;;;;;5013681;28;20119;-78
2023/06/14 10:01:29;;;;;;;0.00;0.00;;;24.90;55.50;;;;;;4997417;28;20091;-76
2023/06/14 10:03:59;;;;;;;0.00;0.00;;;25.10;56.30;;;;;;5010939;28;20041;-74
2023/06/14 10:06:26;;;;;;;0.00;0.00;;;25.00;56.70;;;;;;5011105;28;20041;-74
2023/06/14 10:08:59;;;;;;;2.83;0.63;;;25.20;55.30;;;;;;4995807;28;20045;-74
2023/06/14 10:11:26;;;;;;;0.10;0.00;;;25.30;55.90;;;;;;5010793;28;20042;-77
2023/06/14 10:13:52;;;;;;;0.32;0.20;;;25.50;53.50;;;;;;4995954;28;20067;-74
2023/06/14 10:16:24;;;;;;;0.00;0.00;;;25.30;54.30;;;;;;5010557;28;20403;-74
2023/06/14 10:18:59;;;;;;;1.48;0.32;;;25.40;53.20;;;;;;5009661;28;20045;-72
2023/06/14 10:21:52;;;;;;;0.30;0.20;;;25.40;52.80;;;;;;5012987;28;20124;-71
2023/06/14 10:24:24;;;;;;;0.00;0.00;;;25.20;52.80;;;;;;5013750;28;20056;-71
2023/06/14 10:26:56;;;;;;;0.17;0.00;;;25.10;52.00;;;;;;5010420;28;20049;-71
2023/06/14 10:29:22;;;;;;;0.00;0.00;;;25.00;52.50;;;;;;5010461;28;20045;-73
2023/06/14 10:31:50;;;;;;;0.10;0.10;;;24.90;51.50;;;;;;5012590;28;20043;-72
2023/06/14 10:34:28;;;;;;;0.10;0.00;;;25.00;52.00;;;;;;5027839;28;20030;-74
2023/06/14 10:37:14;;;;;;;0.00;0.00;;;25.20;51.80;;;;;;5013959;28;20045;-74
2023/06/14 10:39:41;;;;;;;0.00;0.00;;;25.40;50.80;;;;;;5012037;28;20041;-73
2023/06/14 10:42:07;;;;;;;0.20;0.20;;;25.60;50.40;;;;;;5010563;28;20128;-75
2023/06/14 10:44:39;;;;;;;0.08;0.08;;;25.70;49.40;;;;;;5010775;28;20046;-75
2023/06/14 10:47:24;;;;;;;0.08;0.08;;;25.90;48.80;;;;;;5013055;28;20476;-73
2023/06/14 10:50:08;;;;;;;0.00;0.00;;;26.10;49.30;;;;;;5012623;28;20064;-75
2023/06/14 10:52:37;;;;;;;0.00;0.00;;;26.10;49.60;;;;;;5011683;28;20041;-75
2023/06/14 10:55:11;;;;;;;0.00;0.00;;;26.10;48.10;;;;;;5010397;28;20297;-74
2023/06/14 10:57:49;;;;;;;0.00;0.00;;;26.10;49.90;;;;;;4994091;28;20046;-73
2023/06/14 11:00:20;;;;;;;0.30;0.20;;;26.30;47.80;;;;;;4996421;28;20042;-74
2023/06/14 11:02:54;;;;;;;0.20;0.10;;;26.30;49.80;;;;;;5012345;28;20116;-73
2023/06/14 11:05:27;;;;;;;0.00;0.00;;;26.40;48.20;;;;;;5012483;28;20174;-74
2023/06/14 11:08:29;;;;;;;0.28;0.10;;;26.40;46.90;;;;;;5003380;28;20042;-76
2023/06/14 11:11:02;;;;;;;0.00;0.00;;;26.30;47.30;;;;;;5010427;28;20148;-72
2023/06/14 11:13:28;;;;;;;0.03;0.00;;;26.10;47.20;;;;;;5011622;28;20440;-72
2023/06/14 11:15:56;;;;;;;0.40;0.30;;;26.20;48.20;;;;;;5006448;28;20501;-76
2023/06/14 11:18:27;;;;;;;0.00;0.00;;;26.00;48.00;;;;;;5010398;28;20570;-74
2023/06/14 11:20:53;;;;;;;0.00;0.00;;;26.20;47.40;;;;;;4994959;28;20537;-73
2023/06/14 11:23:19;;;;;;;0.13;0.10;;;26.20;47.40;;;;;;5011229;28;20080;-75
2023/06/14 11:25:52;;;;;;;0.08;0.03;;;26.50;46.90;;;;;;4992742;28;20052;-73
2023/06/14 11:28:19;;;;;;;0.20;0.10;;;26.50;47.20;;;;;;5011335;28;20120;-73
2023/06/14 11:30:46;;;;;;;0.03;0.00;;;26.70;46.50;;;;;;4994999;28;20046;-75
2023/06/14 11:33:18;;;;;;;0.10;0.10;;;26.70;46.80;;;;;;4995174;28;20045;-77
2023/06/14 11:35:45;;;;;;;0.20;0.10;;;26.50;47.80;;;;;;5010764;28;20045;-78
2023/06/14 11:38:11;;;;;;;0.45;0.15;;;26.70;48.70;;;;;;5010936;28;20056;-76
2023/06/14 11:40:38;;;;;;;0.32;0.00;;;26.80;47.90;;;;;;5009115;28;20034;-78
2023/06/14 11:43:22;;;;;;;0.00;0.00;;;27.10;46.60;;;;;;5011577;28;20068;-77
2023/06/14 11:45:49;;;;;;;0.20;0.10;;;27.00;48.90;;;;;;5008628;28;20505;-78
2023/06/14 11:48:15;;;;;;;0.00;0.00;;;27.30;46.30;;;;;;5010459;28;20049;-74
2023/06/14 11:50:40;;;;;;;0.43;0.10;;;27.30;46.20;;;;;;5008524;28;20041;-76
2023/06/14 11:53:07;;;;;;;0.00;0.00;;;27.10;45.40;;;;;;5005124;28;20433;-75
2023/06/14 11:55:37;;;;;;;0.03;0.00;;;26.90;46.60;;;;;;5013521;28;20520;-76
2023/06/14 11:58:03;;;;;;;0.00;0.00;;;26.90;46.80;;;;;;5014876;28;20208;-77
2023/06/14 12:00:29;;;;;;;0.00;0.00;;;27.00;45.30;;;;;;5010819;28;20040;-75
2023/06/14 12:02:56;;;;;;;0.70;0.10;;;26.90;45.50;;;;;;5032214;28;20045;-74
2023/06/14 12:05:23;;;;;;;0.38;0.10;;;26.70;46.30;;;;;;5012504;28;20076;-73
2023/06/14 12:07:50;;;;;;;0.00;0.00;;;26.70;45.90;;;;;;5013319;28;20076;-76
2023/06/14 12:10:16;;;;;;;0.08;0.03;;;26.60;45.80;;;;;;5009281;28;20514;-72
2023/06/14 12:12:42;;;;;;;0.00;0.00;;;26.60;46.90;;;;;;5013650;28;20079;-78
2023/06/14 12:15:11;;;;;;;0.40;0.00;;;26.70;47.60;;;;;;5014192;28;20030;-77
2023/06/14 12:17:41;;;;;;;0.10;0.00;;;26.80;47.10;;;;;;5013726;28;20045;-72
2023/06/14 12:20:11;;;;;;;0.03;0.00;;;26.90;46.70;;;;;;5009461;28;20046;-73
2023/06/14 12:22:37;;;;;;;0.47;0.20;;;27.20;46.70;;;;;;5011565;28;20044;-73
2023/06/14 12:25:04;;;;;;;0.00;0.00;;;27.20;45.80;;;;;;5011484;28;20084;-74
2023/06/14 12:27:30;;;;;;;0.00;0.00;;;27.10;46.00;;;;;;5007367;28;20037;-73
2023/06/14 12:30:04;;;;;;;1.88;0.10;;;27.10;47.70;;;;;;5030233;28;20116;-73
2023/06/14 12:32:30;;;;;;;0.00;0.00;;;27.20;47.50;;;;;;5011455;28;20041;-73
2023/06/14 12:34:56;;;;;;;1.35;0.35;;;27.30;45.70;;;;;;5011766;28;20381;-74
2023/06/14 12:37:22;;;;;;;0.00;0.00;;;27.00;45.50;;;;;;5013768;28;20452;-75
2023/06/14 12:39:48;;;;;;;0.10;0.08;;;27.00;45.90;;;;;;5030133;28;20073;-74
2023/06/14 12:42:14;;;;;;;0.10;0.08;;;26.80;46.00;;;;;;4994133;28;20265;-72
2023/06/14 12:44:40;;;;;;;0.08;0.00;;;26.90;47.80;;;;;;5030737;28;20481;-75
2023/06/14 12:47:07;;;;;;;0.85;0.10;;;26.90;47.70;;;;;;5011372;28;20338;-74
2023/06/14 12:49:33;;;;;;;0.00;0.00;;;26.90;47.20;;;;;;4995367;28;20084;-76